sensor_id;sensor_type;location;lat;lon;timestamp;pressure;altitude;pressure_sealevel;temperature;humidity
31771;BME280;18343;50.152;8.182;2023-02-10T00:00:28;99198.75;;;-1.54;69.10
31771;BME280;18343;50.152;8.182;2023-02-10T00:03:12;99214.75;;;-1.57;68.95
31771;BME280;18343;50.152;8.182;2023-02-10T00:05:57;99217.59;;;-1.62;68.97
31771;BME280;18343;50.152;8.182;2023-02-10T00:08:46;99215.81;;;-1.61;69.24
31771;BME280;18343;50.152;8.182;2023-02-10T00:11:31;99220.31;;;-1.63;69.53
31771;BME280;18343;50.152;8.182;2023-02-10T00:14:17;99216.59;;;-1.59;70.30
31771;BME280;18343;50.152;8.182;2023-02-10T00:17:04;99225.38;;;-1.59;69.94
31771;BME280;18343;50.152;8.182;2023-02-10T00:19:49;99222.00;;;-1.62;69.96
31771;BME280;18343;50.152;8.182;2023-02-10T00:22:33;99226.16;;;-1.57;70.59
31771;BME280;18343;50.152;8.182;2023-02-10T00:25:18;99220.78;;;-1.55;70.89
31771;BME280;18343;50.152;8.182;2023-02-10T00:28:04;99231.41;;;-1.57;70.38
31771;BME280;18343;50.152;8.182;2023-02-10T00:30:49;99234.13;;;-1.58;70.50
31771;BME280;18343;50.152;8.182;2023-02-10T00:33:34;99232.56;;;-1.62;70.58
31771;BME280;18343;50.152;8.182;2023-02-10T00:36:19;99236.84;;;-1.60;70.88
31771;BME280;18343;50.152;8.182;2023-02-10T00:39:04;99248.31;;;-1.61;70.50
31771;BME280;18343;50.152;8.182;2023-02-10T00:41:49;99252.97;;;-1.66;70.21
31771;BME280;18343;50.152;8.182;2023-02-10T00:44:33;99246.22;;;-1.72;70.28
31771;BME280;18343;50.152;8.182;2023-02-10T00:47:18;99247.91;;;-1.71;70.59
31771;BME280;18343;50.152;8.182;2023-02-10T00:50:05;99252.41;;;-1.73;70.42
31771;BME280;18343;50.152;8.182;2023-02-10T00:52:49;99257.69;;;-1.73;71.29
31771;BME280;18343;50.152;8.182;2023-02-10T00:55:34;99268.94;;;-1.69;71.55
31771;BME280;18343;50.152;8.182;2023-02-10T00:58:18;99268.03;;;-1.68;71.14
31771;BME280;18343;50.152;8.182;2023-02-10T01:01:04;99262.03;;;-1.72;71.48
31771;BME280;18343;50.152;8.182;2023-02-10T01:03:48;99271.72;;;-1.72;71.18
31771;BME280;18343;50.152;8.182;2023-02-10T01:06:34;99271.78;;;-1.74;71.19
31771;BME280;18343;50.152;8.182;2023-02-10T01:09:19;99271.72;;;-1.72;72.02
31771;BME280;18343;50.152;8.182;2023-02-10T01:12:05;99278.00;;;-1.75;71.49
31771;BME280;18343;50.152;8.182;2023-02-10T01:14:50;99271.22;;;-1.80;70.98
31771;BME280;18343;50.152;8.182;2023-02-10T01:17:34;99273.19;;;-1.85;71.43
31771;BME280;18343;50.152;8.182;2023-02-10T01:20:19;99271.50;;;-1.86;71.32
31771;BME280;18343;50.152;8.182;2023-02-10T01:23:05;99266.28;;;-1.88;71.51
31771;BME280;18343;50.152;8.182;2023-02-10T01:25:50;99267.38;;;-1.92;71.55
31771;BME280;18343;50.152;8.182;2023-02-10T01:28:36;99274.50;;;-1.94;71.55
31771;BME280;18343;50.152;8.182;2023-02-10T01:31:22;99277.06;;;-1.92;71.54
31771;BME280;18343;50.152;8.182;2023-02-10T01:34:07;99288.47;;;-1.92;71.16
31771;BME280;18343;50.152;8.182;2023-02-10T01:36:51;99288.59;;;-1.95;71.32
31771;BME280;18343;50.152;8.182;2023-02-10T01:39:37;99288.53;;;-1.93;71.68
31771;BME280;18343;50.152;8.182;2023-02-10T01:42:22;99283.34;;;-1.95;71.63
31771;BME280;18343;50.152;8.182;2023-02-10T01:45:19;99291.94;;;-1.91;71.48
31771;BME280;18343;50.152;8.182;2023-02-10T01:48:04;99288.59;;;-1.95;72.02
31771;BME280;18343;50.152;8.182;2023-02-10T01:50:54;99284.81;;;-1.89;72.48
31771;BME280;18343;50.152;8.182;2023-02-10T01:53:41;99287.38;;;-1.88;72.99
31771;BME280;18343;50.152;8.182;2023-02-10T01:56:28;99288.09;;;-1.84;72.82
31771;BME280;18343;50.152;8.182;2023-02-10T01:59:13;99287.97;;;-1.81;73.01
31771;BME280;18343;50.152;8.182;2023-02-10T02:01:59;99296.59;;;-1.78;73.74
31771;BME280;18343;50.152;8.182;2023-02-10T02:04:49;99298.88;;;-1.70;73.54
31771;BME280;18343;50.152;8.182;2023-02-10T02:07:36;99299.59;;;-1.66;74.07
31771;BME280;18343;50.152;8.182;2023-02-10T02:10:23;99298.38;;;-1.59;74.81
31771;BME280;18343;50.152;8.182;2023-02-10T02:13:23;99304.06;;;-1.50;74.70
31771;BME280;18343;50.152;8.182;2023-02-10T02:16:22;99301.00;;;-1.41;74.55
31771;BME280;18343;50.152;8.182;2023-02-10T02:23:15;99300.41;;;-1.28;74.97
31771;BME280;18343;50.152;8.182;2023-02-10T02:32:57;99305.13;;;-1.16;75.02
31771;BME280;18343;50.152;8.182;2023-02-10T02:35:50;99310.31;;;-1.15;75.52
31771;BME280;18343;50.152;8.182;2023-02-10T02:38:38;99309.41;;;-1.14;75.70
31771;BME280;18343;50.152;8.182;2023-02-10T02:41:23;99313.44;;;-1.07;76.27
31771;BME280;18343;50.152;8.182;2023-02-10T02:44:08;99309.63;;;-1.01;76.37
31771;BME280;18343;50.152;8.182;2023-02-10T02:47:00;99310.97;;;-0.92;77.06
31771;BME280;18343;50.152;8.182;2023-02-10T02:49:57;99307.97;;;-0.85;77.54
31771;BME280;18343;50.152;8.182;2023-02-10T02:52:56;99305.63;;;-0.74;77.54
31771;BME280;18343;50.152;8.182;2023-02-10T02:55:54;99304.41;;;-0.66;77.86
31771;BME280;18343;50.152;8.182;2023-02-10T02:58:49;99298.81;;;-0.60;78.14
31771;BME280;18343;50.152;8.182;2023-02-10T03:01:41;99306.34;;;-0.53;78.27
31771;BME280;18343;50.152;8.182;2023-02-10T03:04:29;99306.19;;;-0.50;78.13
31771;BME280;18343;50.152;8.182;2023-02-10T03:07:16;99306.81;;;-0.45;78.19
31771;BME280;18343;50.152;8.182;2023-02-10T03:10:02;99304.88;;;-0.41;78.46
31771;BME280;18343;50.152;8.182;2023-02-10T03:12:47;99304.63;;;-0.37;78.48
31771;BME280;18343;50.152;8.182;2023-02-10T03:15:32;99307.13;;;-0.33;78.29
31771;BME280;18343;50.152;8.182;2023-02-10T03:18:16;99313.03;;;-0.28;78.67
31771;BME280;18343;50.152;8.182;2023-02-10T03:21:01;99313.72;;;-0.25;79.13
31771;BME280;18343;50.152;8.182;2023-02-10T03:23:47;99310.69;;;-0.17;79.23
31771;BME280;18343;50.152;8.182;2023-02-10T03:26:32;99306.09;;;-0.14;79.30
31771;BME280;18343;50.152;8.182;2023-02-10T03:29:17;99315.56;;;-0.10;79.40
31771;BME280;18343;50.152;8.182;2023-02-10T03:32:01;99315.34;;;-0.05;79.83
31771;BME280;18343;50.152;8.182;2023-02-10T03:34:46;99314.25;;;-0.01;79.98
31771;BME280;18343;50.152;8.182;2023-02-10T03:37:31;99303.47;;;0.02;80.02
31771;BME280;18343;50.152;8.182;2023-02-10T03:40:18;99307.66;;;0.06;80.25
31771;BME280;18343;50.152;8.182;2023-02-10T03:43:03;99311.00;;;0.10;80.30
31771;BME280;18343;50.152;8.182;2023-02-10T03:45:48;99308.28;;;0.11;80.08
31771;BME280;18343;50.152;8.182;2023-02-10T03:48:33;99314.28;;;0.15;80.33
31771;BME280;18343;50.152;8.182;2023-02-10T03:51:17;99314.97;;;0.18;80.82
31771;BME280;18343;50.152;8.182;2023-02-10T03:54:02;99313.88;;;0.22;80.84
31771;BME280;18343;50.152;8.182;2023-02-10T03:56:49;99324.09;;;0.28;81.16
31771;BME280;18343;50.152;8.182;2023-02-10T03:59:34;99320.34;;;0.32;81.12
31771;BME280;18343;50.152;8.182;2023-02-10T04:02:18;99330.84;;;0.34;81.28
31771;BME280;18343;50.152;8.182;2023-02-10T04:05:03;99331.63;;;0.36;81.57
31771;BME280;18343;50.152;8.182;2023-02-10T04:07:48;99328.81;;;0.39;81.68
31771;BME280;18343;50.152;8.182;2023-02-10T04:10:32;99333.97;;;0.42;81.50
31771;BME280;18343;50.152;8.182;2023-02-10T04:13:18;99340.78;;;0.46;81.90
31771;BME280;18343;50.152;8.182;2023-02-10T04:16:06;99336.19;;;0.50;81.98
31771;BME280;18343;50.152;8.182;2023-02-10T04:18:51;99338.59;;;0.54;82.04
31771;BME280;18343;50.152;8.182;2023-02-10T04:21:36;99348.22;;;0.55;82.29
31771;BME280;18343;50.152;8.182;2023-02-10T04:24:20;99349.94;;;0.56;82.88
31771;BME280;18343;50.152;8.182;2023-02-10T04:27:05;99350.13;;;0.53;82.96
31771;BME280;18343;50.152;8.182;2023-02-10T04:29:51;99348.22;;;0.55;82.68
31771;BME280;18343;50.152;8.182;2023-02-10T04:32:35;99353.44;;;0.57;82.87
31771;BME280;18343;50.152;8.182;2023-02-10T04:35:20;99349.84;;;0.58;83.03
31771;BME280;18343;50.152;8.182;2023-02-10T04:38:04;99342.59;;;0.61;83.26
31771;BME280;18343;50.152;8.182;2023-02-10T04:40:49;99346.03;;;0.63;83.24
31771;BME280;18343;50.152;8.182;2023-02-10T04:43:34;99350.38;;;0.64;83.47
31771;BME280;18343;50.152;8.182;2023-02-10T04:46:20;99352.84;;;0.67;83.58
31771;BME280;18343;50.152;8.182;2023-02-10T04:49:05;99357.13;;;0.70;83.67
31771;BME280;18343;50.152;8.182;2023-02-10T04:51:49;99352.59;;;0.72;83.65
31771;BME280;18343;50.152;8.182;2023-02-10T04:54:35;99357.75;;;0.75;83.84
31771;BME280;18343;50.152;8.182;2023-02-10T04:57:19;99362.19;;;0.75;84.12
31771;BME280;18343;50.152;8.182;2023-02-10T05:00:05;99362.09;;;0.76;83.43
31771;BME280;18343;50.152;8.182;2023-02-10T05:02:52;99363.03;;;0.75;84.15
31771;BME280;18343;50.152;8.182;2023-02-10T05:05:36;99366.28;;;0.80;84.67
31771;BME280;18343;50.152;8.182;2023-02-10T05:08:21;99365.25;;;0.83;84.63
31771;BME280;18343;50.152;8.182;2023-02-10T05:11:05;99366.09;;;0.83;85.19
31771;BME280;18343;50.152;8.182;2023-02-10T05:13:50;99372.31;;;0.82;85.32
31771;BME280;18343;50.152;8.182;2023-02-10T05:16:34;99368.75;;;0.83;84.75
31771;BME280;18343;50.152;8.182;2023-02-10T05:19:21;99377.38;;;0.87;85.54
31771;BME280;18343;50.152;8.182;2023-02-10T05:22:06;99377.13;;;0.91;85.64
31771;BME280;18343;50.152;8.182;2023-02-10T05:24:50;99379.63;;;0.94;85.87
31771;BME280;18343;50.152;8.182;2023-02-10T05:27:36;99379.44;;;0.97;86.03
31771;BME280;18343;50.152;8.182;2023-02-10T05:30:21;99366.97;;;0.99;85.79
31771;BME280;18343;50.152;8.182;2023-02-10T05:33:05;99361.50;;;1.02;85.91
31771;BME280;18343;50.152;8.182;2023-02-10T05:35:51;99366.03;;;1.00;86.80
31771;BME280;18343;50.152;8.182;2023-02-10T05:38:36;99359.78;;;1.01;86.17
31771;BME280;18343;50.152;8.182;2023-02-10T05:41:20;99357.06;;;1.03;86.20
31771;BME280;18343;50.152;8.182;2023-02-10T05:44:05;99357.84;;;1.05;86.14
31771;BME280;18343;50.152;8.182;2023-02-10T05:46:49;99362.09;;;1.08;86.41
31771;BME280;18343;50.152;8.182;2023-02-10T05:49:34;99358.41;;;1.10;86.20
31771;BME280;18343;50.152;8.182;2023-02-10T05:52:20;99350.38;;;1.12;86.21
31771;BME280;18343;50.152;8.182;2023-02-10T05:55:05;99358.59;;;1.07;85.87
31771;BME280;18343;50.152;8.182;2023-02-10T05:57:51;99363.13;;;1.05;86.48
31771;BME280;18343;50.152;8.182;2023-02-10T06:00:36;99354.16;;;1.08;86.81
31771;BME280;18343;50.152;8.182;2023-02-10T06:03:20;99362.28;;;1.05;88.60
31771;BME280;18343;50.152;8.182;2023-02-10T06:06:05;99360.41;;;1.07;87.56
31771;BME280;18343;50.152;8.182;2023-02-10T06:08:51;99353.22;;;1.09;88.27
31771;BME280;18343;50.152;8.182;2023-02-10T06:11:36;99352.25;;;1.10;87.92
31771;BME280;18343;50.152;8.182;2023-02-10T06:14:21;99343.38;;;1.11;87.88
31771;BME280;18343;50.152;8.182;2023-02-10T06:17:06;99344.13;;;1.13;87.98
31771;BME280;18343;50.152;8.182;2023-02-10T06:19:50;99338.84;;;1.13;87.27
31771;BME280;18343;50.152;8.182;2023-02-10T06:22:35;99353.31;;;1.07;86.68
31771;BME280;18343;50.152;8.182;2023-02-10T06:25:22;99352.97;;;0.97;86.28
31771;BME280;18343;50.152;8.182;2023-02-10T06:28:06;99359.53;;;0.90;86.55
31771;BME280;18343;50.152;8.182;2023-02-10T06:30:51;99355.25;;;0.88;87.01
31771;BME280;18343;50.152;8.182;2023-02-10T06:33:35;99358.94;;;0.85;86.43
31771;BME280;18343;50.152;8.182;2023-02-10T06:36:20;99361.31;;;0.74;85.88
31771;BME280;18343;50.152;8.182;2023-02-10T06:39:05;99357.31;;;0.67;85.77
31771;BME280;18343;50.152;8.182;2023-02-10T06:41:51;99360.28;;;0.61;86.15
31771;BME280;18343;50.152;8.182;2023-02-10T06:44:35;99369.22;;;0.58;86.64
31771;BME280;18343;50.152;8.182;2023-02-10T06:47:20;99373.59;;;0.59;86.63
31771;BME280;18343;50.152;8.182;2023-02-10T06:50:05;99371.03;;;0.58;86.17
31771;BME280;18343;50.152;8.182;2023-02-10T06:52:50;99379.31;;;0.52;86.01
31771;BME280;18343;50.152;8.182;2023-02-10T06:55:34;99384.94;;;0.46;86.40
31771;BME280;18343;50.152;8.182;2023-02-10T06:58:20;99386.03;;;0.42;86.36
31771;BME280;18343;50.152;8.182;2023-02-10T07:01:07;99392.34;;;0.39;86.61
31771;BME280;18343;50.152;8.182;2023-02-10T07:03:52;99395.16;;;0.36;86.44
31771;BME280;18343;50.152;8.182;2023-02-10T07:06:37;99396.41;;;0.29;85.63
31771;BME280;18343;50.152;8.182;2023-02-10T07:09:22;99406.31;;;0.25;86.11
31771;BME280;18343;50.152;8.182;2023-02-10T07:12:08;99401.88;;;0.26;86.33
31771;BME280;18343;50.152;8.182;2023-02-10T07:14:54;99402.53;;;0.29;87.15
31771;BME280;18343;50.152;8.182;2023-02-10T07:17:39;99409.47;;;0.32;87.44
31771;BME280;18343;50.152;8.182;2023-02-10T07:20:24;99410.94;;;0.38;88.04
31771;BME280;18343;50.152;8.182;2023-02-10T07:23:09;99418.66;;;0.42;90.49
31771;BME280;18343;50.152;8.182;2023-02-10T07:25:53;99424.03;;;0.06;94.19
31771;BME280;18343;50.152;8.182;2023-02-10T07:28:38;99426.63;;;0.25;91.11
31771;BME280;18343;50.152;8.182;2023-02-10T07:31:24;99424.25;;;0.36;90.21
31771;BME280;18343;50.152;8.182;2023-02-10T07:34:08;99426.66;;;0.41;90.37
31771;BME280;18343;50.152;8.182;2023-02-10T07:36:53;99434.28;;;0.47;89.85
31771;BME280;18343;50.152;8.182;2023-02-10T07:39:38;99432.94;;;0.55;90.08
31771;BME280;18343;50.152;8.182;2023-02-10T07:42:22;99438.59;;;0.65;90.43
31771;BME280;18343;50.152;8.182;2023-02-10T07:45:08;99446.91;;;0.75;90.54
31771;BME280;18343;50.152;8.182;2023-02-10T07:47:54;99447.25;;;0.84;91.14
31771;BME280;18343;50.152;8.182;2023-02-10T07:50:39;99451.28;;;0.91;92.67
31771;BME280;18343;50.152;8.182;2023-02-10T07:53:26;99459.59;;;1.01;91.79
31771;BME280;18343;50.152;8.182;2023-02-10T07:56:11;99450.97;;;1.13;92.14
31771;BME280;18343;50.152;8.182;2023-02-10T07:58:56;99451.25;;;1.24;92.10
31771;BME280;18343;50.152;8.182;2023-02-10T08:01:41;99448.00;;;1.35;92.19
31771;BME280;18343;50.152;8.182;2023-02-10T08:04:29;99442.09;;;1.46;92.54
31771;BME280;18343;50.152;8.182;2023-02-10T08:07:14;99436.19;;;1.56;92.45
31771;BME280;18343;50.152;8.182;2023-02-10T08:09:58;99437.44;;;1.65;92.72
31771;BME280;18343;50.152;8.182;2023-02-10T08:12:42;99445.91;;;1.72;92.69
31771;BME280;18343;50.152;8.182;2023-02-10T08:15:27;99449.16;;;1.77;92.40
31771;BME280;18343;50.152;8.182;2023-02-10T08:18:13;99448.13;;;1.79;92.24
31771;BME280;18343;50.152;8.182;2023-02-10T08:21:00;99448.72;;;1.84;92.98
31771;BME280;18343;50.152;8.182;2023-02-10T08:23:45;99446.56;;;1.91;93.05
31771;BME280;18343;50.152;8.182;2023-02-10T08:26:29;99442.00;;;1.93;93.15
31771;BME280;18343;50.152;8.182;2023-02-10T08:29:14;99443.63;;;1.95;93.14
31771;BME280;18343;50.152;8.182;2023-02-10T08:31:59;99441.72;;;1.97;93.54
31771;BME280;18343;50.152;8.182;2023-02-10T08:34:43;99446.34;;;1.94;94.34
31771;BME280;18343;50.152;8.182;2023-02-10T08:37:30;99452.44;;;1.96;93.74
31771;BME280;18343;50.152;8.182;2023-02-10T08:40:14;99449.44;;;2.02;93.87
31771;BME280;18343;50.152;8.182;2023-02-10T08:42:58;99443.84;;;2.07;93.84
31771;BME280;18343;50.152;8.182;2023-02-10T08:45:43;99445.31;;;2.12;93.90
31771;BME280;18343;50.152;8.182;2023-02-10T08:48:28;99444.09;;;2.18;94.35
31771;BME280;18343;50.152;8.182;2023-02-10T08:51:13;99437.34;;;2.26;94.62
31771;BME280;18343;50.152;8.182;2023-02-10T08:54:02;99450.75;;;2.39;95.12
31771;BME280;18343;50.152;8.182;2023-02-10T08:56:47;99453.78;;;2.47;95.44
31771;BME280;18343;50.152;8.182;2023-02-10T08:59:32;99442.63;;;2.56;95.82
31771;BME280;18343;50.152;8.182;2023-02-10T09:02:17;99450.13;;;2.64;95.07
31771;BME280;18343;50.152;8.182;2023-02-10T09:05:02;99448.16;;;2.67;95.18
31771;BME280;18343;50.152;8.182;2023-02-10T09:07:47;99452.00;;;2.76;95.55
31771;BME280;18343;50.152;8.182;2023-02-10T09:10:33;99446.16;;;2.85;95.81
31771;BME280;18343;50.152;8.182;2023-02-10T09:13:17;99450.91;;;2.94;96.17
31771;BME280;18343;50.152;8.182;2023-02-10T09:16:02;99442.41;;;3.02;96.11
31771;BME280;18343;50.152;8.182;2023-02-10T09:18:46;99451.72;;;3.09;96.32
31771;BME280;18343;50.152;8.182;2023-02-10T09:21:31;99448.50;;;3.18;96.69
31771;BME280;18343;50.152;8.182;2023-02-10T09:24:18;99450.69;;;3.26;97.01
31771;BME280;18343;50.152;8.182;2023-02-10T09:27:04;99460.72;;;3.35;96.98
31771;BME280;18343;50.152;8.182;2023-02-10T09:29:49;99456.81;;;3.40;97.13
31771;BME280;18343;50.152;8.182;2023-02-10T09:32:33;99453.66;;;3.48;97.20
31771;BME280;18343;50.152;8.182;2023-02-10T09:35:18;99458.47;;;3.56;97.66
31771;BME280;18343;50.152;8.182;2023-02-10T09:38:03;99461.13;;;3.56;99.32
31771;BME280;18343;50.152;8.182;2023-02-10T09:40:58;99462.91;;;3.69;98.50
31771;BME280;18343;50.152;8.182;2023-02-10T09:44:08;99456.34;;;3.75;99.06
31771;BME280;18343;50.152;8.182;2023-02-10T09:47:13;99463.69;;;3.84;98.16
31771;BME280;18343;50.152;8.182;2023-02-10T09:50:29;99458.63;;;3.94;98.68
31771;BME280;18343;50.152;8.182;2023-02-10T09:53:19;99467.16;;;3.99;98.86
31771;BME280;18343;50.152;8.182;2023-02-10T09:56:09;99462.19;;;4.07;99.24
31771;BME280;18343;50.152;8.182;2023-02-10T09:58:57;99470.69;;;4.12;98.61
31771;BME280;18343;50.152;8.182;2023-02-10T10:01:49;99475.94;;;4.14;98.23
31771;BME280;18343;50.152;8.182;2023-02-10T10:04:36;99470.50;;;4.15;98.63
31771;BME280;18343;50.152;8.182;2023-02-10T10:07:26;99470.19;;;4.20;99.25
31771;BME280;18343;50.152;8.182;2023-02-10T10:10:20;99471.59;;;4.25;99.02
31771;BME280;18343;50.152;8.182;2023-02-10T10:13:14;99469.50;;;4.30;99.13
31771;BME280;18343;50.152;8.182;2023-02-10T10:16:13;99475.13;;;4.26;100.00
31771;BME280;18343;50.152;8.182;2023-02-10T10:19:10;99475.13;;;4.26;99.00
31771;BME280;18343;50.152;8.182;2023-02-10T10:22:15;99477.47;;;4.30;99.49
31771;BME280;18343;50.152;8.182;2023-02-10T10:25:21;99471.75;;;4.36;99.51
31771;BME280;18343;50.152;8.182;2023-02-10T10:28:12;99465.97;;;4.42;98.66
31771;BME280;18343;50.152;8.182;2023-02-10T10:31:10;99465.97;;;4.42;99.68
31771;BME280;18343;50.152;8.182;2023-02-10T10:34:01;99478.78;;;4.50;99.08
31771;BME280;18343;50.152;8.182;2023-02-10T10:36:52;99480.19;;;4.56;99.85
31771;BME280;18343;50.152;8.182;2023-02-10T10:39:40;99475.19;;;4.64;100.00
31771;BME280;18343;50.152;8.182;2023-02-10T10:42:41;99480.50;;;4.76;100.00
31771;BME280;18343;50.152;8.182;2023-02-10T10:45:32;99476.88;;;4.78;100.00
31771;BME280;18343;50.152;8.182;2023-02-10T10:48:22;99470.50;;;4.80;100.00
31771;BME280;18343;50.152;8.182;2023-02-10T10:51:08;99461.97;;;4.88;100.00
31771;BME280;18343;50.152;8.182;2023-02-10T10:53:54;99460.34;;;4.98;100.00
31771;BME280;18343;50.152;8.182;2023-02-10T10:56:44;99459.81;;;5.05;100.00
31771;BME280;18343;50.152;8.182;2023-02-10T10:59:36;99457.25;;;5.17;100.00
31771;BME280;18343;50.152;8.182;2023-02-10T11:02:23;99461.16;;;5.24;100.00
31771;BME280;18343;50.152;8.182;2023-02-10T11:05:13;99461.16;;;5.24;100.00
31771;BME280;18343;50.152;8.182;2023-02-10T11:07:59;99450.59;;;5.22;100.00
31771;BME280;18343;50.152;8.182;2023-02-10T11:10:51;99450.81;;;5.32;100.00
31771;BME280;18343;50.152;8.182;2023-02-10T11:13:40;99459.97;;;5.28;100.00
31771;BME280;18343;50.152;8.182;2023-02-10T11:16:25;99457.63;;;5.23;100.00
31771;BME280;18343;50.152;8.182;2023-02-10T11:19:22;99454.00;;;5.24;100.00
31771;BME280;18343;50.152;8.182;2023-02-10T11:22:16;99455.28;;;5.31;100.00
31771;BME280;18343;50.152;8.182;2023-02-10T11:25:24;99453.91;;;5.26;100.00
31771;BME280;18343;50.152;8.182;2023-02-10T11:28:19;99449.50;;;5.37;100.00
31771;BME280;18343;50.152;8.182;2023-02-10T11:31:27;99451.75;;;5.43;100.00
31771;BME280;18343;50.152;8.182;2023-02-10T11:34:19;99450.88;;;5.43;100.00
31771;BME280;18343;50.152;8.182;2023-02-10T11:37:11;99451.97;;;5.28;100.00
31771;BME280;18343;50.152;8.182;2023-02-10T11:40:03;99439.91;;;5.35;100.00
31771;BME280;18343;50.152;8.182;2023-02-10T11:42:51;99439.69;;;5.38;100.00
31771;BME280;18343;50.152;8.182;2023-02-10T11:45:36;99436.06;;;5.39;100.00
31771;BME280;18343;50.152;8.182;2023-02-10T11:48:23;99435.63;;;5.45;100.00
31771;BME280;18343;50.152;8.182;2023-02-10T11:51:15;99434.03;;;5.42;100.00
31771;BME280;18343;50.152;8.182;2023-02-10T11:54:00;99439.19;;;5.20;100.00
31771;BME280;18343;50.152;8.182;2023-02-10T11:56:56;99432.59;;;5.13;100.00
31771;BME280;18343;50.152;8.182;2023-02-10T11:59:54;99439.81;;;5.24;100.00
31771;BME280;18343;50.152;8.182;2023-02-10T12:03:29;99437.78;;;5.27;100.00
31771;BME280;18343;50.152;8.182;2023-02-10T12:06:25;99432.56;;;5.26;100.00
31771;BME280;18343;50.152;8.182;2023-02-10T12:09:26;99437.25;;;5.35;100.00
31771;BME280;18343;50.152;8.182;2023-02-10T12:12:22;99433.19;;;5.42;100.00
31771;BME280;18343;50.152;8.182;2023-02-10T12:15:20;99430.63;;;5.40;100.00
31771;BME280;18343;50.152;8.182;2023-02-10T12:18:26;99430.03;;;5.48;100.00
31771;BME280;18343;50.152;8.182;2023-02-10T12:21:35;99427.16;;;5.51;100.00
31771;BME280;18343;50.152;8.182;2023-02-10T12:27:56;99428.53;;;5.57;100.00
31771;BME280;18343;50.152;8.182;2023-02-10T12:30:50;99425.63;;;5.60;100.00
31771;BME280;18343;50.152;8.182;2023-02-10T12:33:49;99422.53;;;5.66;100.00
31771;BME280;18343;50.152;8.182;2023-02-10T12:36:42;99422.81;;;5.74;100.00
31771;BME280;18343;50.152;8.182;2023-02-10T12:39:42;99415.50;;;5.76;100.00
31771;BME280;18343;50.152;8.182;2023-02-10T12:42:41;99419.31;;;5.85;100.00
31771;BME280;18343;50.152;8.182;2023-02-10T12:45:41;99406.19;;;5.94;100.00
31771;BME280;18343;50.152;8.182;2023-02-10T12:48:34;99402.91;;;6.02;100.00
31771;BME280;18343;50.152;8.182;2023-02-10T12:51:44;99400.19;;;6.15;100.00
31771;BME280;18343;50.152;8.182;2023-02-10T12:54:39;99397.91;;;6.21;100.00
31771;BME280;18343;50.152;8.182;2023-02-10T12:57:29;99393.13;;;6.14;100.00
31771;BME280;18343;50.152;8.182;2023-02-10T13:00:24;99386.34;;;6.21;100.00
31771;BME280;18343;50.152;8.182;2023-02-10T13:03:19;99380.44;;;6.28;100.00
31771;BME280;18343;50.152;8.182;2023-02-10T13:06:22;99380.56;;;6.38;100.00
31771;BME280;18343;50.152;8.182;2023-02-10T13:09:14;99385.06;;;6.60;100.00
31771;BME280;18343;50.152;8.182;2023-02-10T13:12:15;99381.44;;;6.61;100.00
31771;BME280;18343;50.152;8.182;2023-02-10T13:15:12;99379.25;;;6.66;100.00
31771;BME280;18343;50.152;8.182;2023-02-10T13:17:58;99376.47;;;6.78;100.00
31771;BME280;18343;50.152;8.182;2023-02-10T13:20:54;99384.84;;;6.96;99.98
31771;BME280;18343;50.152;8.182;2023-02-10T13:23:46;99376.72;;;6.98;100.00
31771;BME280;18343;50.152;8.182;2023-02-10T13:26:46;99383.63;;;7.00;99.81
31771;BME280;18343;50.152;8.182;2023-02-10T13:29:45;99388.84;;;6.91;99.51
31771;BME280;18343;50.152;8.182;2023-02-10T13:32:46;99379.75;;;6.71;98.30
31771;BME280;18343;50.152;8.182;2023-02-10T13:35:35;99384.00;;;6.85;99.28
31771;BME280;18343;50.152;8.182;2023-02-10T13:38:23;99384.47;;;6.67;99.30
31771;BME280;18343;50.152;8.182;2023-02-10T13:41:24;99383.63;;;6.67;99.07
31771;BME280;18343;50.152;8.182;2023-02-10T13:44:29;99389.13;;;6.76;99.39
31771;BME280;18343;50.152;8.182;2023-02-10T13:47:26;99390.81;;;6.77;99.28
31771;BME280;18343;50.152;8.182;2023-02-10T13:50:27;99382.44;;;6.82;98.81
31771;BME280;18343;50.152;8.182;2023-02-10T13:53:38;99390.91;;;6.87;98.79
31771;BME280;18343;50.152;8.182;2023-02-10T13:56:26;99376.47;;;6.78;98.35
31771;BME280;18343;50.152;8.182;2023-02-10T13:59:34;99382.53;;;6.92;98.72
31771;BME280;18343;50.152;8.182;2023-02-10T14:02:22;99371.00;;;6.80;97.72
31771;BME280;18343;50.152;8.182;2023-02-10T14:05:23;99377.31;;;6.79;96.88
31771;BME280;18343;50.152;8.182;2023-02-10T14:08:30;99375.38;;;6.81;97.09
31771;BME280;18343;50.152;8.182;2023-02-10T14:11:30;99369.53;;;6.76;97.68
31771;BME280;18343;50.152;8.182;2023-02-10T14:14:25;99375.88;;;6.75;96.69
31771;BME280;18343;50.152;8.182;2023-02-10T14:17:21;99368.94;;;6.72;96.99
31771;BME280;18343;50.152;8.182;2023-02-10T14:20:16;99375.50;;;6.68;97.19
31771;BME280;18343;50.152;8.182;2023-02-10T14:23:18;99369.03;;;6.60;97.03
31771;BME280;18343;50.152;8.182;2023-02-10T14:26:07;99371.47;;;6.63;97.48
31771;BME280;18343;50.152;8.182;2023-02-10T14:28:58;99370.75;;;6.50;96.51
31771;BME280;18343;50.152;8.182;2023-02-10T14:31:48;99365.50;;;6.48;97.56
31771;BME280;18343;50.152;8.182;2023-02-10T14:34:35;99371.91;;;6.34;96.94
31771;BME280;18343;50.152;8.182;2023-02-10T14:37:21;99365.88;;;6.43;96.96
31771;BME280;18343;50.152;8.182;2023-02-10T14:40:29;99370.13;;;6.46;96.97
31771;BME280;18343;50.152;8.182;2023-02-10T14:43:23;99370.97;;;6.47;96.85
31771;BME280;18343;50.152;8.182;2023-02-10T14:46:17;99366.13;;;6.52;97.26
31771;BME280;18343;50.152;8.182;2023-02-10T14:49:14;99376.47;;;6.56;97.00
31771;BME280;18343;50.152;8.182;2023-02-10T14:52:03;99368.56;;;6.55;96.39
31771;BME280;18343;50.152;8.182;2023-02-10T14:54:47;99365.63;;;6.47;96.35
31771;BME280;18343;50.152;8.182;2023-02-10T14:57:32;99361.88;;;6.49;96.84
31771;BME280;18343;50.152;8.182;2023-02-10T15:00:19;99362.00;;;6.48;96.38
31771;BME280;18343;50.152;8.182;2023-02-10T15:03:04;99362.00;;;6.48;96.60
31771;BME280;18343;50.152;8.182;2023-02-10T15:05:52;99359.44;;;6.46;96.11
31771;BME280;18343;50.152;8.182;2023-02-10T15:08:43;99352.28;;;6.47;96.04
31771;BME280;18343;50.152;8.182;2023-02-10T15:11:34;99346.06;;;6.35;96.13
31771;BME280;18343;50.152;8.182;2023-02-10T15:14:25;99347.91;;;6.45;96.54
31771;BME280;18343;50.152;8.182;2023-02-10T15:17:15;99353.25;;;6.45;96.57